createdAt,value
2022-08-19T00:01:02.515Z,16.60
2022-08-19T00:06:06.054Z,15.10
2022-08-19T00:16:26.496Z,16.58
2022-08-19T00:26:34.669Z,21.53
2022-08-19T00:31:38.190Z,21.02
2022-08-19T00:36:41.761Z,20.00
2022-08-19T00:41:48.576Z,20.70
2022-08-19T00:46:55.370Z,21.53
2022-08-19T00:52:04.941Z,21.98
2022-08-19T00:57:14.330Z,21.15
2022-08-19T01:02:18.617Z,20.53
2022-08-19T01:07:21.927Z,20.20
2022-08-19T01:12:28.680Z,20.80
2022-08-19T01:17:32.596Z,20.75
2022-08-19T01:22:44.933Z,19.60
2022-08-19T01:27:53.623Z,19.83
2022-08-19T01:32:58.571Z,20.48
2022-08-19T01:38:08.399Z,19.70
2022-08-19T01:43:12.691Z,19.37
2022-08-19T01:48:16.695Z,19.00
2022-08-19T01:53:21.397Z,19.02
2022-08-19T01:58:31.474Z,18.80
2022-08-19T02:03:35.640Z,18.92
2022-08-19T02:08:41.779Z,19.30
2022-08-19T02:13:45.093Z,18.63
2022-08-19T02:18:49.579Z,19.33
2022-08-19T02:23:54.563Z,18.67
2022-08-19T02:28:57.905Z,18.30
2022-08-19T02:34:01.471Z,18.58
2022-08-19T02:39:06.283Z,18.95
2022-08-19T02:44:29.101Z,20.50
2022-08-19T02:49:34.731Z,20.77
2022-08-19T02:54:40.059Z,21.80
2022-08-19T02:59:43.351Z,21.02
2022-08-19T03:04:46.843Z,20.60
2022-08-19T03:09:51.546Z,21.17
2022-08-19T03:14:55.123Z,21.77
2022-08-19T03:19:58.545Z,20.73
2022-08-19T03:25:03.610Z,19.75
2022-08-19T03:30:08.166Z,20.57
2022-08-19T03:35:15.159Z,20.92
2022-08-19T03:40:20.054Z,20.33
2022-08-19T03:45:23.324Z,20.38
2022-08-19T03:55:31.477Z,21.20
2022-08-19T04:00:34.878Z,18.60
2022-08-19T04:05:38.705Z,18.73
2022-08-19T04:10:43.475Z,18.90
2022-08-19T04:15:48.004Z,17.85
2022-08-19T04:20:51.350Z,18.15
2022-08-19T04:25:56.679Z,17.90
2022-08-19T04:30:59.997Z,18.50
2022-08-19T04:36:03.281Z,19.70
2022-08-19T04:41:25.616Z,20.43
2022-08-19T04:46:39.970Z,20.95
2022-08-19T04:51:46.503Z,20.55
2022-08-19T04:56:52.176Z,21.48
2022-08-19T05:01:55.518Z,20.58
2022-08-19T05:07:00.881Z,21.38
2022-08-19T05:12:06.853Z,20.05
2022-08-19T05:22:36.760Z,19.90
2022-08-19T05:27:42.043Z,22.60
2022-08-19T05:32:45.744Z,22.25
2022-08-19T05:37:49.062Z,20.90
2022-08-19T05:42:59.659Z,22.83
2022-08-19T05:48:02.945Z,22.05
2022-08-19T05:53:06.396Z,21.05
2022-08-19T05:58:11.132Z,22.63
2022-08-19T06:03:14.475Z,21.60
2022-08-19T06:08:19.496Z,21.52
2022-08-19T06:13:25.490Z,21.40
2022-08-19T06:18:29.001Z,19.70
2022-08-19T06:23:32.689Z,20.90
2022-08-19T06:28:37.315Z,22.00
2022-08-19T06:33:40.627Z,20.03
2022-08-19T06:38:44.694Z,17.83
2022-08-19T06:43:54.011Z,17.10
2022-08-19T06:48:59.440Z,16.40
2022-08-19T06:54:03.112Z,16.50
2022-08-19T06:59:14.666Z,16.48
2022-08-19T07:04:21.170Z,16.63
2022-08-19T07:09:24.758Z,18.17
2022-08-19T07:14:30.156Z,16.42
2022-08-19T07:19:34.341Z,17.87
2022-08-19T07:24:38.845Z,15.82
2022-08-19T07:29:57.287Z,17.35
2022-08-19T07:35:04.300Z,16.77
2022-08-19T07:40:09.719Z,16.05
2022-08-19T07:45:14.628Z,17.23
2022-08-19T07:50:20.400Z,16.27
2022-08-19T07:55:41.685Z,14.18
2022-08-19T08:00:49.768Z,14.30
2022-08-19T08:06:10.400Z,13.98
2022-08-19T08:11:15.390Z,14.40
2022-08-19T08:16:20.346Z,14.05
2022-08-19T08:21:23.635Z,14.75
2022-08-19T08:26:27.392Z,14.13
2022-08-19T08:31:34.589Z,13.95
2022-08-19T08:36:42.738Z,13.77
2022-08-19T08:41:53.847Z,13.45
2022-08-19T08:47:03.628Z,13.15
2022-08-19T08:52:09.676Z,12.50
2022-08-19T08:57:17.622Z,12.43
2022-08-19T09:02:22.455Z,11.33
2022-08-19T09:07:36.872Z,11.93
2022-08-19T09:12:47.296Z,12.27
2022-08-19T09:17:52.140Z,12.88
2022-08-19T09:22:55.772Z,13.07
2022-08-19T09:28:05.818Z,13.43
2022-08-19T09:33:20.667Z,12.30
2022-08-19T09:38:24.093Z,14.02
2022-08-19T09:43:33.520Z,13.80
2022-08-19T09:53:57.882Z,13.75
2022-08-19T09:59:02.006Z,13.50
2022-08-19T10:04:19.735Z,13.97
2022-08-19T10:09:26.161Z,13.63
2022-08-19T10:14:37.451Z,13.50
2022-08-19T10:19:44.046Z,13.80
2022-08-19T10:24:59.350Z,12.20
2022-08-19T10:30:03.441Z,11.98
2022-08-19T10:35:09.471Z,10.93
2022-08-19T10:40:13.650Z,12.27
2022-08-19T10:45:17.668Z,11.75
2022-08-19T10:50:39.791Z,11.23
2022-08-19T10:56:00.652Z,11.23
2022-08-19T11:01:04.126Z,11.67
2022-08-19T11:06:10.442Z,11.98
2022-08-19T11:11:14.180Z,11.55
2022-08-19T11:16:20.437Z,11.02
2022-08-19T11:26:30.401Z,11.80
2022-08-19T11:31:38.278Z,11.20
2022-08-19T11:36:46.289Z,10.83
2022-08-19T11:41:50.058Z,11.20
2022-08-19T11:46:53.635Z,11.50
2022-08-19T11:51:59.431Z,10.07
2022-08-19T11:57:04.673Z,9.30
2022-08-19T12:02:08.209Z,10.75
2022-08-19T12:07:13.063Z,11.10
2022-08-19T12:12:16.873Z,11.30
2022-08-19T12:17:20.293Z,11.20
2022-08-19T12:22:25.277Z,11.13
2022-08-19T12:27:34.728Z,11.65
2022-08-19T12:32:44.896Z,11.20
2022-08-19T12:37:57.477Z,11.90
2022-08-19T12:43:01.467Z,11.05
2022-08-19T12:48:32.803Z,10.60
2022-08-19T12:53:30.226Z,9.97
2022-08-19T12:58:35.636Z,10.10
2022-08-19T13:03:40.709Z,8.85
2022-08-19T13:08:46.555Z,9.90
2022-08-19T13:13:52.140Z,8.63
2022-08-19T13:18:57.221Z,8.35
2022-08-19T13:24:05.267Z,7.60
2022-08-19T13:29:25.942Z,8.20
2022-08-19T13:34:33.993Z,8.05
2022-08-19T13:39:38.802Z,8.63
2022-08-19T13:44:42.208Z,8.48
2022-08-19T13:49:45.759Z,7.63
2022-08-19T13:54:50.670Z,8.60
2022-08-19T13:59:54.111Z,7.28
2022-08-19T14:04:57.503Z,9.57
2022-08-19T14:10:02.479Z,12.00
2022-08-19T14:15:07.924Z,9.52
2022-08-19T14:20:17.770Z,10.07
2022-08-19T14:25:25.409Z,11.30
2022-08-19T14:30:30.855Z,12.20
2022-08-19T14:35:35.716Z,13.60
2022-08-19T14:40:41.621Z,13.30
2022-08-19T14:45:45.099Z,13.13
2022-08-19T14:50:48.995Z,12.18
2022-08-19T14:55:53.856Z,12.32
2022-08-19T15:00:57.273Z,12.88
2022-08-19T15:06:02.495Z,12.30
2022-08-19T15:11:11.730Z,13.03
2022-08-19T15:16:18.036Z,11.87
2022-08-19T15:21:27.297Z,12.90
2022-08-19T15:26:33.564Z,15.27
2022-08-19T15:31:38.931Z,16.02
2022-08-19T15:36:42.419Z,15.60
2022-08-19T15:41:47.946Z,15.90
2022-08-19T15:46:51.316Z,14.25
2022-08-19T15:51:57.862Z,14.73
2022-08-19T15:57:19.915Z,15.10
2022-08-19T16:02:43.817Z,15.75
2022-08-19T16:23:06.247Z,15.40
2022-08-19T16:33:22.676Z,19.38
2022-08-19T16:38:27.637Z,18.30
2022-08-19T16:43:32.820Z,19.13
2022-08-19T16:48:36.777Z,18.10
2022-08-19T16:53:41.712Z,18.80
2022-08-19T16:58:46.445Z,19.55
2022-08-19T17:03:51.594Z,18.92
2022-08-19T17:08:58.433Z,18.33
2022-08-19T17:14:04.214Z,18.23
2022-08-19T17:19:08.924Z,18.15
2022-08-19T17:24:12.411Z,18.80
2022-08-19T17:29:17.205Z,15.40
2022-08-19T17:34:20.622Z,13.52
2022-08-19T17:39:24.179Z,12.57
2022-08-19T17:44:28.921Z,11.55
2022-08-19T17:49:32.645Z,11.98
2022-08-19T17:54:36.818Z,10.23
2022-08-19T17:59:41.600Z,10.07
2022-08-19T18:04:48.649Z,10.40
2022-08-19T18:09:54.898Z,10.03
2022-08-19T18:15:02.140Z,10.90
2022-08-19T18:20:12.090Z,23.23
2022-08-19T18:25:19.312Z,12.95
2022-08-19T18:30:25.562Z,15.35
2022-08-19T18:35:31.470Z,12.43
2022-08-19T18:40:52.141Z,12.20
2022-08-19T18:46:14.139Z,11.18
2022-08-19T18:51:18.992Z,10.60
2022-08-19T18:56:28.968Z,10.45
2022-08-19T19:01:37.185Z,10.18
2022-08-19T19:06:43.070Z,11.13
2022-08-19T19:11:50.398Z,11.98
2022-08-19T19:16:55.383Z,12.63
2022-08-19T19:21:59.267Z,12.48
2022-08-19T19:27:07.145Z,12.47
2022-08-19T19:32:18.427Z,12.80
2022-08-19T19:37:22.668Z,10.50
2022-08-19T19:42:26.258Z,10.57
2022-08-19T19:47:31.517Z,10.20
2022-08-19T19:52:34.910Z,11.20
2022-08-19T19:57:40.177Z,11.67
2022-08-19T20:02:49.614Z,11.00
2022-08-19T20:08:12.746Z,11.63
2022-08-19T20:13:16.482Z,11.30
2022-08-19T20:18:21.829Z,13.23
2022-08-19T20:23:26.561Z,11.95
2022-08-19T20:28:30.242Z,11.47
2022-08-19T20:33:35.292Z,12.30
2022-08-19T20:38:39.368Z,12.38
2022-08-19T20:43:42.771Z,11.67
2022-08-19T20:48:47.610Z,11.30
2022-08-19T20:53:51.024Z,12.23
2022-08-19T20:58:59.362Z,12.00
2022-08-19T21:04:05.403Z,11.57
2022-08-19T21:09:08.757Z,11.40
2022-08-19T21:14:13.021Z,11.77
2022-08-19T21:19:22.030Z,12.85
2022-08-19T21:24:31.384Z,12.93
2022-08-19T21:29:37.510Z,13.23
2022-08-19T21:34:47.475Z,13.02
2022-08-19T21:39:52.088Z,12.87
2022-08-19T21:44:56.282Z,13.07
2022-08-19T21:50:01.096Z,12.13
2022-08-19T21:55:05.274Z,11.68
2022-08-19T22:00:15.155Z,10.90
2022-08-19T22:05:23.321Z,11.27
2022-08-19T22:10:28.851Z,11.40
2022-08-19T22:15:33.292Z,10.73
2022-08-19T22:20:38.172Z,10.73
2022-08-19T22:25:44.872Z,10.00
2022-08-19T22:30:48.912Z,10.57
2022-08-19T22:35:56.927Z,10.30
2022-08-19T22:41:00.288Z,10.38
2022-08-19T22:46:03.622Z,9.47
2022-08-19T22:51:26.246Z,8.83
2022-08-19T22:56:31.877Z,8.97
2022-08-19T23:01:36.009Z,9.97
2022-08-19T23:06:42.163Z,8.52
2022-08-19T23:11:46.420Z,8.50
2022-08-19T23:16:51.369Z,8.83
2022-08-19T23:21:57.111Z,9.63
2022-08-19T23:27:17.617Z,9.50
2022-08-19T23:32:21.882Z,8.52
2022-08-19T23:37:26.659Z,10.25
2022-08-19T23:42:30.122Z,9.00
2022-08-19T23:47:34.150Z,8.07
2022-08-19T23:52:45.746Z,8.10
2022-08-19T23:57:49.152Z,8.13
